createdAt,value
2017-12-19T00:02:20.539Z,67.51
2017-12-19T00:04:53.585Z,67.69
2017-12-19T00:07:26.642Z,67.93
2017-12-19T00:09:58.237Z,67.97
2017-12-19T00:12:31.214Z,67.79
2017-12-19T00:15:05.069Z,67.69
2017-12-19T00:17:38.055Z,68.31
2017-12-19T00:20:09.526Z,68.38
2017-12-19T00:22:44.596Z,69.59
2017-12-19T00:25:16.841Z,69.61
2017-12-19T00:27:48.030Z,69.98
2017-12-19T00:30:19.623Z,70.51
2017-12-19T00:32:51.095Z,70.83
2017-12-19T00:35:21.427Z,71.19
2017-12-19T00:37:52.676Z,70.87
2017-12-19T00:40:28.627Z,70.99
2017-12-19T00:43:00.292Z,71.05
2017-12-19T00:45:31.939Z,71.38
2017-12-19T00:48:02.874Z,71.13
2017-12-19T00:50:34.262Z,71.52
2017-12-19T00:55:47.444Z,71.30
2017-12-19T00:58:17.705Z,71.10
2017-12-19T01:00:48.822Z,71.49
2017-12-19T01:03:20.227Z,71.38
2017-12-19T01:05:51.222Z,71.46
2017-12-19T01:08:22.184Z,72.07
2017-12-19T01:10:53.227Z,71.99
2017-12-19T01:13:24.482Z,71.93
2017-12-19T01:15:55.320Z,71.86
2017-12-19T01:18:26.123Z,71.99
2017-12-19T01:20:57.534Z,72.70
2017-12-19T01:23:28.614Z,72.73
2017-12-19T01:25:59.836Z,72.66
2017-12-19T01:28:31.279Z,72.63
2017-12-19T01:31:02.860Z,72.28
2017-12-19T01:33:34.896Z,71.72
2017-12-19T01:36:05.627Z,72.07
2017-12-19T01:38:36.390Z,71.99
2017-12-19T01:41:07.139Z,71.93
2017-12-19T01:43:40.108Z,71.46
2017-12-19T01:48:51.901Z,71.40
2017-12-19T01:51:22.481Z,71.08
2017-12-19T01:53:53.488Z,71.12
2017-12-19T01:56:26.221Z,71.27
2017-12-19T01:58:58.632Z,70.91
2017-12-19T02:01:30.582Z,70.37
2017-12-19T02:04:01.188Z,70.00
2017-12-19T02:06:33.399Z,70.81
2017-12-19T02:09:04.856Z,70.85
2017-12-19T02:11:37.522Z,71.42
2017-12-19T02:14:10.664Z,71.47
2017-12-19T02:16:43.314Z,71.30
2017-12-19T02:19:16.116Z,70.90
2017-12-19T02:21:48.377Z,70.67
2017-12-19T02:24:20.983Z,70.41
2017-12-19T02:26:54.192Z,70.15
2017-12-19T02:29:25.585Z,69.94
2017-12-19T02:31:57.950Z,69.82
2017-12-19T02:34:31.295Z,69.57
2017-12-19T02:37:02.571Z,69.77
2017-12-19T02:39:34.273Z,69.33
2017-12-19T02:42:05.383Z,69.05
2017-12-19T02:44:47.725Z,68.76
2017-12-19T02:47:19.799Z,68.77
2017-12-19T02:49:52.006Z,68.63
2017-12-19T02:52:24.865Z,68.49
2017-12-19T02:54:58.946Z,68.10
2017-12-19T02:57:32.515Z,67.92
2017-12-19T03:00:07.242Z,67.88
2017-12-19T03:02:39.430Z,67.54
2017-12-19T03:05:10.943Z,67.40
2017-12-19T03:07:43.481Z,67.46
2017-12-19T03:10:14.295Z,67.15
2017-12-19T03:12:44.957Z,67.27
2017-12-19T03:15:22.114Z,67.04
2017-12-19T03:17:53.929Z,67.15
2017-12-19T03:20:25.468Z,67.06
2017-12-19T03:22:57.529Z,67.01
2017-12-19T03:25:35.360Z,66.93
2017-12-19T03:28:06.861Z,66.83
2017-12-19T03:30:39.160Z,66.88
2017-12-19T03:33:09.991Z,67.22
2017-12-19T03:35:41.855Z,67.47
2017-12-19T03:38:13.475Z,67.57
2017-12-19T03:40:44.897Z,67.21
2017-12-19T03:43:16.401Z,66.90
2017-12-19T03:45:46.953Z,66.90
2017-12-19T03:48:17.835Z,67.39
2017-12-19T03:50:50.879Z,67.56
2017-12-19T03:53:27.477Z,67.44
2017-12-19T03:55:58.913Z,68.10
2017-12-19T03:58:31.312Z,68.29
2017-12-19T04:01:02.021Z,68.08
2017-12-19T04:03:34.107Z,68.21
2017-12-19T04:06:05.707Z,67.96
2017-12-19T04:08:37.520Z,68.91
2017-12-19T04:11:09.410Z,70.12
2017-12-19T04:13:41.087Z,70.14
2017-12-19T04:16:12.391Z,69.42
2017-12-19T04:18:43.877Z,69.69
2017-12-19T04:21:14.287Z,69.74
2017-12-19T04:23:45.623Z,69.71
2017-12-19T04:26:17.794Z,69.45
2017-12-19T04:28:49.724Z,69.11
2017-12-19T04:31:22.478Z,69.24
2017-12-19T04:33:53.416Z,69.75
2017-12-19T04:36:25.574Z,69.89
2017-12-19T04:38:56.738Z,70.01
2017-12-19T04:41:30.608Z,70.88
2017-12-19T04:44:03.616Z,70.35
2017-12-19T04:46:35.317Z,71.22
2017-12-19T04:49:06.550Z,71.13
2017-12-19T04:51:38.089Z,70.72
2017-12-19T04:54:08.956Z,71.42
2017-12-19T04:56:44.765Z,71.71
2017-12-19T04:59:16.099Z,71.59
2017-12-19T05:01:47.345Z,71.47
2017-12-19T05:04:20.101Z,71.31
2017-12-19T05:06:51.525Z,71.11
2017-12-19T05:09:23.045Z,71.19
2017-12-19T05:11:54.717Z,71.51
2017-12-19T05:14:26.780Z,71.40
2017-12-19T05:16:58.957Z,71.44
2017-12-19T05:19:29.386Z,72.09
2017-12-19T05:22:00.520Z,72.23
2017-12-19T05:24:39.051Z,72.04
2017-12-19T05:27:09.560Z,72.15
2017-12-19T05:29:40.005Z,72.54
2017-12-19T05:32:13.376Z,72.32
2017-12-19T05:34:44.206Z,71.93
2017-12-19T05:37:15.842Z,72.18
2017-12-19T05:39:47.473Z,72.30
2017-12-19T05:42:18.586Z,72.49
2017-12-19T05:44:49.281Z,72.20
2017-12-19T05:47:21.380Z,72.50
2017-12-19T05:49:52.434Z,72.51
2017-12-19T05:52:23.790Z,73.10
2017-12-19T05:54:54.626Z,72.65
2017-12-19T05:57:25.540Z,72.57
2017-12-19T05:59:57.082Z,71.94
2017-12-19T06:02:29.329Z,72.05
2017-12-19T06:05:00.186Z,72.46
2017-12-19T06:07:32.192Z,71.96
2017-12-19T06:10:03.601Z,72.35
2017-12-19T06:12:34.520Z,72.94
2017-12-19T06:15:08.683Z,74.45
2017-12-19T06:17:39.694Z,74.87
2017-12-19T06:20:11.684Z,75.22
2017-12-19T06:22:44.637Z,74.46
2017-12-19T06:25:19.256Z,74.07
2017-12-19T06:27:52.382Z,73.00
2017-12-19T06:30:24.039Z,72.60
2017-12-19T06:32:54.772Z,72.45
2017-12-19T06:35:27.256Z,72.53
2017-12-19T06:37:57.425Z,72.49
2017-12-19T06:40:30.242Z,72.35
2017-12-19T06:43:00.981Z,72.30
2017-12-19T06:45:32.028Z,71.87
2017-12-19T06:48:16.713Z,71.90
2017-12-19T06:50:47.129Z,72.28
2017-12-19T06:53:17.500Z,72.09
2017-12-19T06:55:48.834Z,71.68
2017-12-19T06:58:19.440Z,71.83
2017-12-19T07:00:49.858Z,71.76
2017-12-19T07:03:23.298Z,71.48
2017-12-19T07:05:55.553Z,71.71
2017-12-19T07:08:25.906Z,71.37
2017-12-19T07:10:56.985Z,71.68
2017-12-19T07:13:27.850Z,71.23
2017-12-19T07:15:58.710Z,71.62
2017-12-19T07:18:32.131Z,71.21
2017-12-19T07:21:03.391Z,71.61
2017-12-19T07:23:35.260Z,71.98
2017-12-19T07:26:05.625Z,71.74
2017-12-19T07:28:37.997Z,71.55
2017-12-19T07:31:08.883Z,71.60
2017-12-19T07:33:39.650Z,71.20
2017-12-19T07:36:09.938Z,71.02
2017-12-19T07:38:40.576Z,72.84
2017-12-19T07:41:12.403Z,73.76
2017-12-19T07:43:44.835Z,73.93
2017-12-19T07:46:15.401Z,73.06
2017-12-19T07:48:46.641Z,74.33
2017-12-19T07:51:17.335Z,74.61
2017-12-19T07:53:47.704Z,73.35
2017-12-19T07:56:24.083Z,72.42
2017-12-19T07:58:54.368Z,71.90
2017-12-19T08:01:25.249Z,71.42
2017-12-19T08:03:58.138Z,71.75
2017-12-19T08:06:28.986Z,72.43
2017-12-19T08:08:59.751Z,74.48
2017-12-19T08:11:31.933Z,75.27
2017-12-19T08:14:03.458Z,74.67
2017-12-19T08:16:50.049Z,75.43
2017-12-19T08:19:22.112Z,75.29
2017-12-19T08:21:52.397Z,75.14
2017-12-19T08:24:23.539Z,74.53
2017-12-19T08:26:57.507Z,74.60
2017-12-19T08:32:12.407Z,73.22
2017-12-19T08:34:43.011Z,73.13
2017-12-19T08:37:14.091Z,73.70
2017-12-19T08:39:52.593Z,74.19
2017-12-19T08:42:31.639Z,74.17
2017-12-19T08:45:05.284Z,75.13
2017-12-19T08:47:37.849Z,75.27
2017-12-19T08:50:08.361Z,76.70
2017-12-19T08:52:41.674Z,76.65
2017-12-19T08:55:13.376Z,76.50
2017-12-19T08:57:44.475Z,76.55
2017-12-19T09:00:22.165Z,76.74
2017-12-19T09:02:54.367Z,76.73
2017-12-19T09:05:27.237Z,76.80
2017-12-19T09:08:02.403Z,77.27
2017-12-19T09:10:35.855Z,76.59
2017-12-19T09:13:07.347Z,76.60
2017-12-19T09:15:43.263Z,77.75
2017-12-19T09:18:16.234Z,78.03
2017-12-19T09:20:47.450Z,77.06
2017-12-19T09:23:18.408Z,77.23
2017-12-19T09:25:49.425Z,77.09
2017-12-19T09:28:21.088Z,76.92
2017-12-19T09:30:51.769Z,76.00
2017-12-19T09:33:22.995Z,77.11
2017-12-19T09:35:54.072Z,77.46
2017-12-19T09:38:25.138Z,77.75
2017-12-19T09:40:55.695Z,77.29
2017-12-19T09:43:26.922Z,77.13
2017-12-19T09:45:57.944Z,77.03
2017-12-19T09:48:28.837Z,77.34
2017-12-19T09:51:00.925Z,77.03
2017-12-19T09:53:33.358Z,76.78
2017-12-19T09:56:07.377Z,76.43
2017-12-19T09:58:45.141Z,76.17
2017-12-19T10:01:16.891Z,76.71
2017-12-19T10:03:48.039Z,76.49
2017-12-19T10:06:23.489Z,76.32
2017-12-19T10:08:54.839Z,76.83
2017-12-19T10:11:25.696Z,77.10
2017-12-19T10:14:05.544Z,77.51
2017-12-19T10:16:38.325Z,78.12
2017-12-19T10:19:10.377Z,78.12
2017-12-19T10:21:42.260Z,78.00
2017-12-19T10:24:13.037Z,77.41
2017-12-19T10:26:43.622Z,76.98
2017-12-19T10:29:15.136Z,77.48
2017-12-19T10:31:47.437Z,77.13
2017-12-19T10:34:20.165Z,77.55
2017-12-19T10:36:50.997Z,77.59
2017-12-19T10:39:22.837Z,77.23
2017-12-19T10:41:53.591Z,77.32
2017-12-19T10:44:25.692Z,77.02
2017-12-19T10:46:59.603Z,77.12
2017-12-19T10:49:31.352Z,76.20
2017-12-19T10:52:03.723Z,76.49
2017-12-19T10:54:34.415Z,75.57
2017-12-19T10:57:04.991Z,75.62
2017-12-19T10:59:42.988Z,76.16
2017-12-19T11:02:14.442Z,76.02
2017-12-19T11:04:47.330Z,75.37
2017-12-19T11:07:19.575Z,74.67
2017-12-19T11:09:50.855Z,74.10
2017-12-19T11:12:22.960Z,74.27
2017-12-19T11:14:54.638Z,74.56
2017-12-19T11:17:38.152Z,74.91
2017-12-19T11:20:10.488Z,75.06
2017-12-19T11:22:44.128Z,74.66
2017-12-19T11:25:19.424Z,74.25
2017-12-19T11:27:57.873Z,74.37
2017-12-19T11:30:34.296Z,74.64
2017-12-19T11:33:17.969Z,74.66
2017-12-19T11:35:51.184Z,74.73
2017-12-19T11:38:31.421Z,74.21
2017-12-19T11:41:06.633Z,74.59
2017-12-19T11:43:43.152Z,74.28
2017-12-19T11:46:19.585Z,74.55
2017-12-19T11:48:54.731Z,74.71
2017-12-19T11:51:34.519Z,74.62
2017-12-19T11:54:12.091Z,74.24
2017-12-19T11:56:46.886Z,73.72
2017-12-19T11:59:24.490Z,73.47
2017-12-19T12:02:01.880Z,73.94
2017-12-19T12:04:40.970Z,73.33
2017-12-19T12:07:15.716Z,73.46
2017-12-19T12:09:51.180Z,73.26
2017-12-19T12:12:29.359Z,73.27
2017-12-19T12:15:18.044Z,74.13
2017-12-19T12:20:50.970Z,73.87
2017-12-19T12:23:33.664Z,73.51
2017-12-19T12:26:11.682Z,73.40
2017-12-19T12:28:51.197Z,73.65
2017-12-19T12:31:33.514Z,73.46
2017-12-19T12:34:11.782Z,73.15
2017-12-19T12:37:03.224Z,73.29
2017-12-19T12:39:47.249Z,72.88
2017-12-19T12:42:25.825Z,72.57
2017-12-19T12:45:07.985Z,72.36
2017-12-19T12:47:42.633Z,71.53
2017-12-19T12:50:14.706Z,71.77
2017-12-19T12:52:50.091Z,71.55
2017-12-19T12:55:21.728Z,72.04
2017-12-19T12:57:54.470Z,72.02
2017-12-19T13:00:28.614Z,72.35
2017-12-19T13:03:03.273Z,72.36
2017-12-19T13:05:38.432Z,71.76
2017-12-19T13:08:17.113Z,72.01
2017-12-19T13:10:51.075Z,72.01
2017-12-19T13:13:22.272Z,71.68
2017-12-19T13:15:58.529Z,71.63
2017-12-19T13:18:32.185Z,71.61
2017-12-19T13:21:05.647Z,71.32
2017-12-19T13:23:41.364Z,71.56
2017-12-19T13:26:19.192Z,71.69
2017-12-19T13:28:58.846Z,71.34
2017-12-19T13:31:38.236Z,71.95
2017-12-19T13:34:12.304Z,72.32
2017-12-19T13:36:52.370Z,71.61
2017-12-19T13:39:28.396Z,71.53
2017-12-19T13:42:02.109Z,71.53
2017-12-19T13:44:35.532Z,71.61
2017-12-19T13:47:09.443Z,71.18
2017-12-19T13:49:45.021Z,70.86
2017-12-19T13:52:17.483Z,71.13
2017-12-19T13:54:49.923Z,71.10
2017-12-19T13:57:21.834Z,71.23
2017-12-19T13:59:53.781Z,70.96
2017-12-19T14:02:26.129Z,70.30
2017-12-19T14:04:57.763Z,70.85
2017-12-19T14:07:30.345Z,70.58
2017-12-19T14:10:02.448Z,70.81
2017-12-19T14:12:34.316Z,70.54
2017-12-19T14:15:15.051Z,70.50
2017-12-19T14:17:57.775Z,70.66
2017-12-19T14:20:29.918Z,70.31
2017-12-19T14:23:02.105Z,71.21
2017-12-19T14:25:33.397Z,71.09
2017-12-19T14:28:05.742Z,70.69
2017-12-19T14:30:39.794Z,70.67
2017-12-19T14:33:12.038Z,70.12
2017-12-19T14:35:44.237Z,70.41
2017-12-19T14:38:15.446Z,70.12
2017-12-19T14:40:47.534Z,71.00
2017-12-19T14:43:28.635Z,70.60
2017-12-19T14:46:01.870Z,70.37
2017-12-19T14:48:35.794Z,69.99
2017-12-19T14:51:09.593Z,70.22
2017-12-19T14:53:42.457Z,69.97
2017-12-19T14:56:14.754Z,70.13
2017-12-19T14:58:46.539Z,70.21
2017-12-19T15:01:18.916Z,69.76
2017-12-19T15:03:49.883Z,69.53
2017-12-19T15:06:22.653Z,69.94
2017-12-19T15:08:54.940Z,69.49
2017-12-19T15:11:27.395Z,69.86
2017-12-19T15:14:00.140Z,70.15
2017-12-19T15:16:33.269Z,69.96
2017-12-19T15:19:04.261Z,69.74
2017-12-19T15:21:35.587Z,69.83
2017-12-19T15:24:07.190Z,70.05
2017-12-19T15:26:40.277Z,70.34
2017-12-19T15:29:11.726Z,70.20
2017-12-19T15:31:43.509Z,69.72
2017-12-19T15:34:17.785Z,70.04
2017-12-19T15:36:50.814Z,70.48
2017-12-19T15:39:24.071Z,70.49
2017-12-19T15:41:57.056Z,70.30
2017-12-19T15:44:34.130Z,69.59
2017-12-19T15:47:09.333Z,70.01
2017-12-19T15:49:43.191Z,70.24
2017-12-19T15:52:17.737Z,69.86
2017-12-19T15:54:49.985Z,69.89
2017-12-19T15:57:22.173Z,69.71
2017-12-19T16:00:00.491Z,69.62
2017-12-19T16:02:38.253Z,69.28
2017-12-19T16:05:10.496Z,69.42
2017-12-19T16:07:41.581Z,69.59
2017-12-19T16:10:15.648Z,69.42
2017-12-19T16:12:49.230Z,69.49
2017-12-19T16:15:22.168Z,69.83
2017-12-19T16:17:54.586Z,69.95
2017-12-19T16:20:27.452Z,70.10
2017-12-19T16:23:10.750Z,70.49
2017-12-19T16:25:44.725Z,69.47
2017-12-19T16:28:19.407Z,69.43
2017-12-19T16:30:54.119Z,69.68
2017-12-19T16:33:29.826Z,69.91
2017-12-19T16:36:10.204Z,69.76
2017-12-19T16:38:44.927Z,70.09
2017-12-19T16:41:37.293Z,69.98
2017-12-19T16:44:10.156Z,70.04
2017-12-19T16:46:43.258Z,70.37
2017-12-19T16:49:17.282Z,70.73
2017-12-19T16:51:52.822Z,70.32
2017-12-19T16:54:47.512Z,70.57
2017-12-19T16:57:21.267Z,70.58
2017-12-19T16:59:56.734Z,70.83
2017-12-19T17:02:31.148Z,71.09
2017-12-19T17:05:02.320Z,71.20
2017-12-19T17:10:04.393Z,71.50
2017-12-19T17:12:35.615Z,71.39
2017-12-19T17:15:09.683Z,71.50
2017-12-19T17:17:45.724Z,71.50
2017-12-19T17:20:20.419Z,71.73
2017-12-19T17:22:51.919Z,71.67
2017-12-19T17:25:23.386Z,71.72
2017-12-19T17:27:55.625Z,72.18
2017-12-19T17:30:27.508Z,72.86
2017-12-19T17:33:02.660Z,72.57
2017-12-19T17:35:34.899Z,72.46
2017-12-19T17:38:10.166Z,72.62
2017-12-19T17:40:43.947Z,73.01
2017-12-19T17:43:20.818Z,73.55
2017-12-19T17:45:52.794Z,73.91
2017-12-19T17:48:27.746Z,73.68
2017-12-19T17:50:59.696Z,73.89
2017-12-19T17:53:31.714Z,73.91
2017-12-19T17:56:03.587Z,73.71
2017-12-19T17:58:38.494Z,73.39
2017-12-19T18:01:09.348Z,73.49
2017-12-19T18:03:41.429Z,74.14
2017-12-19T18:06:13.468Z,74.67
2017-12-19T18:08:44.965Z,74.56
2017-12-19T18:11:16.965Z,74.03
2017-12-19T18:13:49.342Z,74.35
2017-12-19T18:16:24.299Z,74.39
2017-12-19T18:18:58.688Z,74.16
2017-12-19T18:21:31.260Z,74.62
2017-12-19T18:24:03.156Z,74.44
2017-12-19T18:26:35.127Z,74.31
2017-12-19T18:29:08.980Z,74.31
2017-12-19T18:31:48.497Z,74.48
2017-12-19T18:34:21.151Z,75.23
2017-12-19T18:36:54.567Z,75.09
2017-12-19T18:39:28.265Z,75.07
2017-12-19T18:41:59.632Z,75.21
2017-12-19T18:44:33.998Z,74.97
2017-12-19T18:47:09.003Z,75.09
2017-12-19T18:49:47.794Z,74.98
2017-12-19T18:52:20.116Z,74.66
2017-12-19T18:54:52.190Z,74.58
2017-12-19T18:57:24.001Z,74.21
2017-12-19T18:59:54.453Z,74.39
2017-12-19T19:02:25.520Z,74.14
2017-12-19T19:04:57.130Z,74.31
2017-12-19T19:07:30.699Z,74.07
2017-12-19T19:10:01.190Z,74.17
2017-12-19T19:12:34.388Z,74.46
2017-12-19T19:15:14.370Z,74.48
2017-12-19T19:17:44.901Z,74.35
2017-12-19T19:20:16.003Z,73.90
2017-12-19T19:22:46.274Z,74.07
2017-12-19T19:25:16.892Z,74.19
2017-12-19T19:27:47.896Z,74.39
2017-12-19T19:30:18.663Z,74.14
2017-12-19T19:33:19.772Z,74.20
2017-12-19T19:35:53.163Z,74.57
2017-12-19T19:38:23.461Z,74.75
2017-12-19T19:40:54.451Z,74.43
2017-12-19T19:43:25.428Z,74.46
2017-12-19T19:48:34.068Z,74.54
2017-12-19T19:51:08.678Z,74.69
2017-12-19T19:53:40.294Z,74.52
2017-12-19T19:56:11.756Z,74.12
2017-12-19T19:58:42.028Z,74.83
2017-12-19T20:01:12.650Z,75.08
2017-12-19T20:03:43.004Z,75.28
2017-12-19T20:06:13.246Z,75.89
2017-12-19T20:08:44.464Z,75.48
2017-12-19T20:11:15.484Z,75.71
2017-12-19T20:13:45.995Z,75.78
2017-12-19T20:16:16.683Z,75.94
2017-12-19T20:18:47.781Z,75.59
2017-12-19T20:21:18.926Z,75.55
2017-12-19T20:23:49.982Z,75.79
2017-12-19T20:26:20.288Z,75.80
2017-12-19T20:28:51.423Z,75.87
2017-12-19T20:31:22.482Z,76.34
2017-12-19T20:33:56.786Z,76.22
2017-12-19T20:36:28.644Z,76.52
2017-12-19T20:39:03.327Z,76.68
2017-12-19T20:41:35.049Z,76.52
2017-12-19T20:44:17.972Z,76.73
2017-12-19T20:46:50.061Z,76.68
2017-12-19T20:49:20.799Z,76.41
2017-12-19T20:51:51.071Z,76.27
2017-12-19T20:54:21.447Z,76.44
2017-12-19T20:56:53.416Z,76.79
2017-12-19T20:59:24.184Z,76.47
2017-12-19T21:01:55.464Z,76.39
2017-12-19T21:04:26.826Z,75.69
2017-12-19T21:06:57.411Z,75.49
2017-12-19T21:09:28.296Z,75.44
2017-12-19T21:11:59.303Z,75.79
2017-12-19T21:14:30.372Z,75.65
2017-12-19T21:17:01.729Z,75.71
2017-12-19T21:19:32.797Z,75.75
2017-12-19T21:22:03.907Z,75.42
2017-12-19T21:24:38.765Z,75.74
2017-12-19T21:27:09.354Z,75.80
2017-12-19T21:29:40.909Z,75.93
2017-12-19T21:32:14.558Z,75.77
2017-12-19T21:34:45.439Z,75.55
2017-12-19T21:37:16.676Z,75.42
2017-12-19T21:39:47.063Z,76.05
2017-12-19T21:42:17.876Z,76.04
2017-12-19T21:44:48.288Z,75.34
2017-12-19T21:47:23.831Z,75.16
2017-12-19T21:49:55.979Z,75.26
2017-12-19T21:52:26.812Z,75.03
2017-12-19T21:54:57.352Z,75.33
2017-12-19T21:57:28.510Z,75.58
2017-12-19T21:59:58.850Z,75.41
2017-12-19T22:02:30.019Z,75.54
2017-12-19T22:05:01.649Z,75.24
2017-12-19T22:07:31.946Z,75.04
2017-12-19T22:10:02.925Z,75.54
2017-12-19T22:12:35.690Z,75.50
2017-12-19T22:15:07.302Z,75.74
2017-12-19T22:17:38.167Z,76.12
2017-12-19T22:20:09.385Z,76.45
2017-12-19T22:22:41.051Z,76.55
2017-12-19T22:25:11.799Z,76.08
2017-12-19T22:27:48.911Z,75.79
2017-12-19T22:30:19.394Z,75.67
2017-12-19T22:32:49.859Z,76.32
2017-12-19T22:35:20.303Z,76.67
2017-12-19T22:37:51.764Z,76.60
2017-12-19T22:40:22.431Z,76.88
2017-12-19T22:42:52.875Z,77.16
2017-12-19T22:45:24.532Z,76.92
2017-12-19T22:47:57.395Z,76.73
2017-12-19T22:50:27.797Z,76.57
2017-12-19T22:52:59.841Z,76.32
2017-12-19T22:55:31.584Z,76.31
2017-12-19T22:58:03.934Z,75.87
2017-12-19T23:00:36.365Z,75.37
2017-12-19T23:03:07.184Z,75.15
2017-12-19T23:05:37.537Z,74.78
2017-12-19T23:08:16.774Z,74.51
2017-12-19T23:10:47.102Z,75.05
2017-12-19T23:13:17.294Z,75.32
2017-12-19T23:15:47.945Z,75.46
2017-12-19T23:18:18.252Z,75.86
2017-12-19T23:20:49.649Z,75.97
2017-12-19T23:23:20.646Z,76.51
2017-12-19T23:25:51.329Z,76.79
2017-12-19T23:28:21.806Z,76.75
2017-12-19T23:30:52.606Z,76.53
2017-12-19T23:33:23.143Z,76.38
2017-12-19T23:35:53.684Z,76.64
2017-12-19T23:38:24.467Z,76.51
2017-12-19T23:40:54.992Z,76.55
2017-12-19T23:43:25.544Z,76.24
2017-12-19T23:45:56.342Z,75.91
2017-12-19T23:48:27.431Z,75.84
2017-12-19T23:50:58.153Z,75.58
2017-12-19T23:53:28.704Z,75.36
2017-12-19T23:55:59.193Z,74.96
2017-12-19T23:58:30.726Z,74.63
